Main page
METAR-TAF:

METAR-TAF

Airports :

Las Higueras Airport

Río Cuarto, Argentina

latitude: 33-07S, longitude: 064-14W, elevation: 420 m

Current weather observation

The report was made 1 hour and 8 minutes ago, at 16:00 UTC
Wind 24 kt from the North with gusts up to 40 kt
Temperature 14°C
Humidity 63%
Pressure 1016 hPa
Visibility 10 km or more
Scattered clouds at a height of 2000 ft
Scattered clouds at a height of 3000 ft

METAR: SAOC 221600Z 36024G40KT 9999 SCT020 SCT030 14/07 Q1016

Time: 14:08 (17:08 UTC)


TAF: missing

Weather observations and forecasts of more than 4000 airports (METAR and TAF reports).

The available stations are represented by yellow and red dots on the map.

Hover mouse over dot to see the name of the station.

Then click to see weather observations and forecasts.

To change the map : click on the green buttons with a black cross to zoom in, on the green button with a dash to zoom out, or on the green arrows for adjacent maps.


METAR-TAF: